Etusivu
METAR-TAF:

METAR-TAF

Lentoasemat :

Draughon-Miller Central Texas Regional Airport

Temple, Texas, Yhdysvallat

Leveyspiiri: 31-09N, Pituuspiiri: 097-24W, korkeus merenpinnasta: 208 m

Tämänhetkinen sää

Tämä raportti tehtiin 46 minuuttia sitten, kello 16.51 UTC
Tuuli 6 kn idästä/kaakosta
Lämpötila 18°C
Kosteus 77%
Ilmanpaine 1017 hPa
Näkyvyys: 16.1 km
Pilvistä 1400 ft:n korkeudessa

METAR: KTPL 301651Z AUTO 11006KT 10SM OVC014 18/14 A3002 RMK AO2 SLP158 T01830139

Aika: 12:37 (17:37 UTC)


TAF: puuttuu

Säähavainnot ja -ennusteet yli 4000 lentoasemalta (METAR- ja TAF-raportit).

Käytössä olevat sääasemat on merkitty karttaan keltaisilla ja punaisilla pisteillä.

Aseta hiiri pisteen päälle nähdäksesi sääaseman nimen.

Klikkaa sitten nähdäksesi säähavainnot ja -ennusteet.

Kartan vaihtaminen: klikkaa mustalla rastilla varustettuja vihreitä pisteitä, niin voit zoomata sisään; viivalla varustettua vihreää pistettä, niin voit zoomata ulos tai vihreitä nuolia, niin pääset viereisille kartoille.


METAR-TAF: